Time;durP1;ratioP1;P1;durP2;ratioP2;P2;SDS_P1;SDS_P2;PMS_P1;PMS_P2;Temp;Humidity;BMP_temperature;BMP_pressure;BME280_temperature;BME280_humidity;BME280_pressure;Samples;Min_cycle;Max_cycle;Signal;HPM_P1;HPM_P2
2024/01/15 00:01:24;;;;;;;49.63;26.43;;;0.20;99.90;;;;;;5119218;28;20435;-60
2024/01/15 00:03:51;;;;;;;45.70;25.80;;;0.20;99.90;;;;;;5118944;28;20432;-59
2024/01/15 00:06:19;;;;;;;44.73;25.77;;;0.20;99.90;;;;;;5119181;28;20461;-59
2024/01/15 00:08:46;;;;;;;42.83;25.47;;;0.30;99.90;;;;;;5118410;28;20498;-60
2024/01/15 00:11:14;;;;;;;50.00;25.73;;;0.30;99.90;;;;;;5119114;28;20433;-60
2024/01/15 00:13:41;;;;;;;48.77;25.67;;;0.20;99.90;;;;;;5119348;28;20493;-60
2024/01/15 00:16:08;;;;;;;41.23;24.63;;;0.20;99.90;;;;;;5118415;28;20437;-58
2024/01/15 00:18:37;;;;;;;45.87;25.80;;;0.30;99.90;;;;;;5118527;28;20484;-60
2024/01/15 00:21:05;;;;;;;46.40;27.07;;;0.30;99.90;;;;;;5118505;28;20461;-59
2024/01/15 00:23:32;;;;;;;45.93;27.07;;;0.30;99.90;;;;;;5119141;28;20802;-59
2024/01/15 00:26:00;;;;;;;46.13;25.20;;;0.30;99.90;;;;;;5118184;28;20497;-59
2024/01/15 00:28:27;;;;;;;42.90;27.30;;;0.30;99.90;;;;;;5118459;28;20462;-59
2024/01/15 00:30:55;;;;;;;49.27;24.90;;;0.20;99.90;;;;;;5118624;28;20465;-59
2024/01/15 00:33:22;;;;;;;38.77;23.47;;;0.30;99.90;;;;;;5118914;28;20433;-59
2024/01/15 00:35:51;;;;;;;47.10;24.23;;;0.30;99.90;;;;;;5118651;28;20882;-60
2024/01/15 00:38:18;;;;;;;45.97;24.90;;;0.30;99.90;;;;;;5117907;28;20432;-59
2024/01/15 00:40:46;;;;;;;38.00;23.67;;;0.30;99.90;;;;;;5118164;27;20438;-59
2024/01/15 00:43:13;;;;;;;39.10;23.93;;;0.30;99.90;;;;;;5118357;28;20563;-59
2024/01/15 00:45:40;;;;;;;32.70;23.30;;;0.30;99.90;;;;;;5118172;28;20455;-59
2024/01/15 00:48:08;;;;;;;38.80;23.60;;;0.30;99.90;;;;;;5118106;28;20558;-59
2024/01/15 00:50:36;;;;;;;41.20;24.43;;;0.40;99.90;;;;;;5118084;28;20557;-59
2024/01/15 00:53:05;;;;;;;32.80;22.20;;;0.40;99.90;;;;;;5118257;28;20466;-57
2024/01/15 00:55:32;;;;;;;36.13;21.43;;;0.40;99.90;;;;;;5117934;28;20912;-59
2024/01/15 00:58:00;;;;;;;36.70;23.77;;;0.30;99.90;;;;;;5117848;28;20881;-59
2024/01/15 01:00:27;;;;;;;35.10;22.90;;;0.40;99.90;;;;;;5117763;28;20457;-59
2024/01/15 01:02:54;;;;;;;37.67;22.30;;;0.30;99.90;;;;;;5117873;28;20459;-59
2024/01/15 01:05:22;;;;;;;39.33;23.00;;;0.30;99.90;;;;;;5117688;28;20456;-59
2024/01/15 01:07:49;;;;;;;45.27;25.40;;;0.40;99.90;;;;;;5117022;28;20491;-59
2024/01/15 01:10:18;;;;;;;39.03;24.47;;;0.40;99.90;;;;;;5117485;28;21022;-59
2024/01/15 01:12:45;;;;;;;39.70;24.50;;;0.40;99.90;;;;;;5117654;28;20550;-59
2024/01/15 01:15:12;;;;;;;45.43;27.10;;;0.40;99.90;;;;;;5117687;28;20433;-59
2024/01/15 01:17:39;;;;;;;40.93;25.43;;;0.40;99.90;;;;;;5117556;28;20513;-60
2024/01/15 01:20:09;;;;;;;39.20;26.27;;;0.40;99.90;;;;;;5117690;28;20459;-59
2024/01/15 01:22:36;;;;;;;45.27;25.40;;;0.40;99.90;;;;;;5117497;28;20449;-59
2024/01/15 01:25:04;;;;;;;44.47;26.83;;;0.40;99.90;;;;;;5117062;28;20915;-58
2024/01/15 01:27:32;;;;;;;46.17;26.40;;;0.40;99.90;;;;;;5117569;28;20485;-58
2024/01/15 01:30:00;;;;;;;38.07;25.40;;;0.40;99.90;;;;;;5117161;28;20878;-60
2024/01/15 01:32:27;;;;;;;36.43;24.60;;;0.50;99.90;;;;;;5117515;28;20510;-59
2024/01/15 01:34:54;;;;;;;44.70;26.43;;;0.40;99.90;;;;;;5117912;28;20456;-60
2024/01/15 01:37:22;;;;;;;42.07;25.30;;;0.40;99.90;;;;;;5117370;28;20900;-59
2024/01/15 01:39:49;;;;;;;45.70;26.97;;;0.50;99.90;;;;;;5117197;28;20512;-59
2024/01/15 01:42:16;;;;;;;45.40;26.83;;;0.40;99.90;;;;;;5116968;28;20438;-59
2024/01/15 01:44:45;;;;;;;40.70;24.30;;;0.40;99.90;;;;;;5117403;28;20778;-59
2024/01/15 01:47:13;;;;;;;49.27;25.73;;;0.40;99.90;;;;;;5117409;28;20498;-59
2024/01/15 01:49:40;;;;;;;42.90;25.80;;;0.40;99.90;;;;;;5117355;28;20487;-59
2024/01/15 01:52:09;;;;;;;40.07;24.60;;;0.50;99.90;;;;;;5116934;28;20968;-59
2024/01/15 01:54:39;;;;;;;38.90;24.73;;;0.50;99.90;;;;;;5117314;28;20561;-58
2024/01/15 01:57:07;;;;;;;36.97;23.70;;;0.50;99.90;;;;;;5115891;28;20487;-59
2024/01/15 01:59:36;;;;;;;41.63;26.80;;;0.40;99.90;;;;;;5115679;28;20529;-57
2024/01/15 02:02:06;;;;;;;40.70;25.23;;;0.50;99.90;;;;;;5117077;28;20892;-60
2024/01/15 02:04:35;;;;;;;39.50;23.33;;;0.50;99.90;;;;;;5117382;28;20536;-59
2024/01/15 02:07:02;;;;;;;44.83;24.77;;;0.50;99.90;;;;;;5117228;28;20459;-60
2024/01/15 02:09:29;;;;;;;47.70;26.20;;;0.50;99.90;;;;;;5116909;28;20576;-59
2024/01/15 02:11:57;;;;;;;43.97;25.33;;;0.60;99.90;;;;;;5116685;28;20459;-59
2024/01/15 02:14:24;;;;;;;43.00;24.03;;;0.50;99.90;;;;;;5117272;28;20495;-59
2024/01/15 02:16:51;;;;;;;40.97;24.70;;;0.50;99.90;;;;;;5116952;28;20455;-59
2024/01/15 02:19:20;;;;;;;43.87;25.00;;;0.50;99.90;;;;;;5118685;28;20460;-59
2024/01/15 02:21:47;;;;;;;44.63;26.40;;;0.50;99.90;;;;;;5121310;28;20538;-59
2024/01/15 02:24:16;;;;;;;44.20;26.03;;;0.50;99.90;;;;;;5120856;28;20459;-58
2024/01/15 02:26:44;;;;;;;43.73;25.17;;;0.50;99.90;;;;;;5120706;28;20465;-59
2024/01/15 02:29:12;;;;;;;41.10;25.83;;;0.50;99.90;;;;;;5121347;28;20589;-59
2024/01/15 02:31:40;;;;;;;38.57;24.07;;;0.50;99.90;;;;;;5120453;28;20460;-58
2024/01/15 02:34:07;;;;;;;38.60;24.20;;;0.50;99.90;;;;;;5120706;28;20458;-59
2024/01/15 02:36:34;;;;;;;46.70;25.10;;;0.50;99.90;;;;;;5121265;28;20462;-59
2024/01/15 02:39:01;;;;;;;41.30;26.70;;;0.50;99.90;;;;;;5120940;28;20425;-59
2024/01/15 02:41:30;;;;;;;41.30;24.60;;;0.50;99.90;;;;;;5120948;28;20947;-59
2024/01/15 02:43:57;;;;;;;39.73;22.57;;;0.50;99.90;;;;;;5120208;28;20553;-59
2024/01/15 02:46:24;;;;;;;44.73;24.97;;;0.50;99.90;;;;;;5120430;28;20460;-59
2024/01/15 02:48:51;;;;;;;40.73;22.80;;;0.60;99.90;;;;;;5119690;28;20509;-59
2024/01/15 02:51:19;;;;;;;42.57;24.57;;;0.50;99.90;;;;;;5120470;28;20515;-59
2024/01/15 02:53:46;;;;;;;37.10;23.30;;;0.60;99.90;;;;;;5119883;28;20843;-59
2024/01/15 02:56:13;;;;;;;42.60;23.47;;;0.60;99.90;;;;;;5119898;28;20465;-59
2024/01/15 02:58:42;;;;;;;41.47;24.33;;;0.60;99.90;;;;;;5120209;28;20914;-58
2024/01/15 03:01:09;;;;;;;44.67;25.47;;;0.60;99.90;;;;;;5120244;28;20458;-59
2024/01/15 03:03:36;;;;;;;40.87;25.10;;;0.60;99.90;;;;;;5120395;28;20465;-57
2024/01/15 03:06:04;;;;;;;43.70;23.33;;;0.60;99.90;;;;;;5120202;28;20550;-59
2024/01/15 03:08:31;;;;;;;37.70;23.33;;;0.60;99.90;;;;;;5119764;28;20461;-59
2024/01/15 03:10:58;;;;;;;41.90;24.50;;;0.60;99.90;;;;;;5119888;28;20488;-59
2024/01/15 03:13:26;;;;;;;35.43;24.17;;;0.60;99.90;;;;;;5119833;28;20437;-59
2024/01/15 03:15:54;;;;;;;39.77;24.10;;;0.60;99.90;;;;;;5120000;28;20546;-59
2024/01/15 03:18:21;;;;;;;39.10;22.23;;;0.60;99.90;;;;;;5119734;28;20465;-59
2024/01/15 03:20:48;;;;;;;34.63;21.70;;;0.60;99.90;;;;;;5119923;28;20459;-59
2024/01/15 03:23:16;;;;;;;40.23;21.00;;;0.60;99.90;;;;;;5119613;28;20459;-59
2024/01/15 03:25:43;;;;;;;39.57;22.97;;;0.60;99.90;;;;;;5119621;28;20486;-58
2024/01/15 03:28:10;;;;;;;37.20;21.40;;;0.60;99.90;;;;;;5119542;28;20565;-58
2024/01/15 03:30:37;;;;;;;37.10;21.57;;;0.60;99.90;;;;;;5118756;28;20502;-57
2024/01/15 03:33:06;;;;;;;38.47;21.20;;;0.60;99.90;;;;;;5118980;28;20459;-58
2024/01/15 03:35:33;;;;;;;34.50;19.80;;;0.60;99.90;;;;;;5119441;28;20459;-58
2024/01/15 03:38:00;;;;;;;32.87;20.23;;;0.70;99.90;;;;;;5119552;28;20462;-59
2024/01/15 03:40:27;;;;;;;34.80;21.10;;;0.60;99.90;;;;;;5119527;28;20561;-57
2024/01/15 03:42:55;;;;;;;41.87;22.40;;;0.70;99.90;;;;;;5119105;28;20980;-58
2024/01/15 03:45:22;;;;;;;33.20;20.47;;;0.70;99.90;;;;;;5119213;28;20554;-58
2024/01/15 03:47:49;;;;;;;37.33;21.17;;;0.70;99.90;;;;;;5119246;28;20553;-59
2024/01/15 03:50:18;;;;;;;33.57;20.00;;;0.70;99.90;;;;;;5118992;28;20910;-59
2024/01/15 03:52:45;;;;;;;38.47;19.67;;;0.70;99.90;;;;;;5119219;28;20521;-59
2024/01/15 03:55:12;;;;;;;29.00;19.00;;;0.70;99.90;;;;;;5119130;28;20569;-58
2024/01/15 03:57:39;;;;;;;31.60;19.20;;;0.60;99.90;;;;;;5119284;28;20777;-58
2024/01/15 04:00:08;;;;;;;37.20;20.47;;;0.70;99.90;;;;;;5118954;28;20514;-57
2024/01/15 04:02:35;;;;;;;31.00;19.63;;;0.70;99.90;;;;;;5118883;28;20476;-59
2024/01/15 04:05:03;;;;;;;31.67;19.37;;;0.70;99.90;;;;;;5118895;28;20931;-59
2024/01/15 04:07:31;;;;;;;37.30;19.40;;;0.70;99.90;;;;;;5118949;28;20432;-58
2024/01/15 04:09:59;;;;;;;30.80;20.30;;;0.60;99.90;;;;;;5118930;28;20550;-58
2024/01/15 04:12:26;;;;;;;29.50;17.53;;;0.60;99.90;;;;;;5118876;28;20551;-59
2024/01/15 04:14:53;;;;;;;32.80;19.03;;;0.70;99.90;;;;;;5118623;28;20485;-59
2024/01/15 04:17:21;;;;;;;28.17;17.80;;;0.70;99.90;;;;;;5118704;28;20890;-59
2024/01/15 04:19:49;;;;;;;32.53;20.30;;;0.70;99.90;;;;;;5118066;28;20438;-58
2024/01/15 04:22:16;;;;;;;30.33;19.07;;;0.70;99.90;;;;;;5118728;28;20801;-58
2024/01/15 04:24:44;;;;;;;29.30;20.27;;;0.70;99.90;;;;;;5118244;28;20557;-59
2024/01/15 04:27:12;;;;;;;26.80;19.03;;;0.60;99.90;;;;;;5118504;28;20461;-59
2024/01/15 04:29:39;;;;;;;27.23;17.90;;;0.60;99.90;;;;;;5118495;28;20510;-59
2024/01/15 04:32:07;;;;;;;35.53;18.90;;;0.70;99.90;;;;;;5118422;28;20906;-58
2024/01/15 04:34:34;;;;;;;24.50;17.90;;;0.70;99.90;;;;;;5118167;28;20550;-59
2024/01/15 04:37:01;;;;;;;30.57;19.73;;;0.70;99.90;;;;;;5118098;28;20463;-58
2024/01/15 04:39:28;;;;;;;30.33;18.47;;;0.70;99.90;;;;;;5118432;28;20467;-59
2024/01/15 04:41:57;;;;;;;27.97;18.57;;;0.70;99.90;;;;;;5117826;28;20451;-59
2024/01/15 04:44:24;;;;;;;28.23;18.30;;;0.70;99.90;;;;;;5118118;28;20459;-58
2024/01/15 04:46:51;;;;;;;25.03;17.53;;;0.70;99.90;;;;;;5117952;28;20487;-58
2024/01/15 04:49:18;;;;;;;28.93;18.40;;;0.70;99.90;;;;;;5118022;28;20897;-57
2024/01/15 04:51:45;;;;;;;30.63;18.23;;;0.70;99.90;;;;;;5118310;28;20501;-59
2024/01/15 04:54:12;;;;;;;26.50;17.87;;;0.70;99.90;;;;;;5118275;28;20477;-59
2024/01/15 04:56:40;;;;;;;32.13;17.70;;;0.80;99.90;;;;;;5118050;28;20765;-58
2024/01/15 04:59:08;;;;;;;25.67;17.10;;;0.70;99.90;;;;;;5118191;28;20558;-58
2024/01/15 05:01:35;;;;;;;28.20;17.80;;;0.70;99.90;;;;;;5118022;28;20461;-58
2024/01/15 05:04:03;;;;;;;32.40;18.33;;;0.70;99.90;;;;;;5117767;28;20876;-59
2024/01/15 05:06:30;;;;;;;23.97;16.37;;;0.70;99.90;;;;;;5117543;28;20444;-59
2024/01/15 05:08:57;;;;;;;30.90;16.93;;;0.70;99.90;;;;;;5117806;28;20534;-59
2024/01/15 05:11:24;;;;;;;24.07;16.70;;;0.70;99.90;;;;;;5117818;28;20491;-58
2024/01/15 05:13:53;;;;;;;29.73;18.00;;;0.70;99.90;;;;;;5117780;28;20975;-59
2024/01/15 05:16:21;;;;;;;27.93;18.67;;;0.70;99.90;;;;;;5117391;28;20565;-59
2024/01/15 05:18:48;;;;;;;29.87;19.80;;;0.70;99.90;;;;;;5117722;28;20786;-58
2024/01/15 05:21:15;;;;;;;27.57;17.33;;;0.70;99.90;;;;;;5118037;28;20732;-59
2024/01/15 05:23:42;;;;;;;35.13;18.00;;;0.70;99.90;;;;;;5117874;28;20951;-59
2024/01/15 05:26:10;;;;;;;25.97;17.43;;;0.70;99.90;;;;;;5117608;28;20792;-57
2024/01/15 05:28:37;;;;;;;29.00;17.47;;;0.70;99.90;;;;;;5117717;28;20553;-58
2024/01/15 05:31:05;;;;;;;27.73;17.80;;;0.70;99.90;;;;;;5118081;28;20490;-59
2024/01/15 05:33:33;;;;;;;26.83;18.20;;;0.70;99.90;;;;;;5117989;28;20862;-56
2024/01/15 05:36:00;;;;;;;29.40;18.93;;;0.70;99.90;;;;;;5117541;28;20490;-58
2024/01/15 05:38:28;;;;;;;25.10;18.20;;;0.70;99.90;;;;;;5117388;28;20431;-59
2024/01/15 05:40:55;;;;;;;24.70;17.53;;;0.60;99.90;;;;;;5117479;28;20461;-59
2024/01/15 05:43:22;;;;;;;29.67;17.57;;;0.70;99.90;;;;;;5117626;28;20469;-58
2024/01/15 05:45:49;;;;;;;29.80;18.23;;;0.70;99.90;;;;;;5117990;28;20463;-59
2024/01/15 05:48:17;;;;;;;31.27;17.33;;;0.70;99.90;;;;;;5117587;28;20459;-59
2024/01/15 05:50:45;;;;;;;27.50;17.93;;;0.70;99.90;;;;;;5117168;28;20937;-58
2024/01/15 05:53:12;;;;;;;26.73;18.10;;;0.70;99.90;;;;;;5117706;28;20502;-59
2024/01/15 05:55:39;;;;;;;35.83;17.27;;;0.70;99.90;;;;;;5121283;28;20554;-59
2024/01/15 05:58:07;;;;;;;26.37;17.40;;;0.70;99.90;;;;;;5121537;28;20527;-58
2024/01/15 06:00:35;;;;;;;24.70;17.27;;;0.70;99.90;;;;;;5121317;28;20884;-59
2024/01/15 06:03:02;;;;;;;25.93;15.63;;;0.70;99.90;;;;;;5121804;28;20471;-59
2024/01/15 06:05:29;;;;;;;30.30;18.17;;;0.70;99.90;;;;;;5121591;28;20470;-59
2024/01/15 06:07:58;;;;;;;33.40;16.40;;;0.70;99.90;;;;;;5121044;28;20523;-59
2024/01/15 06:10:25;;;;;;;27.97;17.40;;;0.70;99.90;;;;;;5121030;28;20750;-59
2024/01/15 06:12:52;;;;;;;27.73;15.37;;;0.70;99.90;;;;;;5121221;28;20459;-59
2024/01/15 06:15:19;;;;;;;24.60;15.17;;;0.70;99.90;;;;;;5121089;28;20430;-58
2024/01/15 06:17:47;;;;;;;25.90;16.30;;;0.80;99.90;;;;;;5121446;28;20803;-57
2024/01/15 06:20:14;;;;;;;26.07;16.30;;;0.80;99.90;;;;;;5121391;28;20430;-59
2024/01/15 06:22:42;;;;;;;27.00;15.83;;;0.80;99.90;;;;;;5121301;28;20429;-57
2024/01/15 06:25:10;;;;;;;32.63;16.53;;;0.80;99.90;;;;;;5121202;28;20469;-58
2024/01/15 06:27:37;;;;;;;25.50;15.70;;;0.80;99.90;;;;;;5121165;28;20824;-58
2024/01/15 06:30:06;;;;;;;24.43;15.57;;;0.80;99.90;;;;;;5120796;28;20491;-58
2024/01/15 06:32:33;;;;;;;23.77;15.43;;;0.90;99.90;;;;;;5121123;28;20736;-58
2024/01/15 06:35:00;;;;;;;23.57;14.60;;;0.80;99.90;;;;;;5121370;28;20455;-59
2024/01/15 06:37:28;;;;;;;25.47;15.77;;;0.80;99.90;;;;;;5120722;28;20876;-58
2024/01/15 06:39:55;;;;;;;22.07;16.53;;;0.80;99.90;;;;;;5119599;28;20547;-59
2024/01/15 06:42:23;;;;;;;27.13;16.37;;;1.00;99.90;;;;;;5120196;28;20533;-59
2024/01/15 06:44:51;;;;;;;21.87;14.70;;;1.00;99.90;;;;;;5120296;28;20558;-59
2024/01/15 06:47:18;;;;;;;22.90;15.10;;;0.90;99.90;;;;;;5121041;28;20501;-59
2024/01/15 06:49:45;;;;;;;23.97;15.77;;;0.80;99.90;;;;;;5121073;28;20478;-59
2024/01/15 06:52:13;;;;;;;27.83;16.47;;;0.80;99.90;;;;;;5120847;28;20491;-59
2024/01/15 06:54:40;;;;;;;18.90;14.50;;;0.80;99.90;;;;;;5120701;28;20451;-59
2024/01/15 06:57:07;;;;;;;27.17;15.50;;;0.80;99.90;;;;;;5120084;28;20493;-59
2024/01/15 06:59:36;;;;;;;23.70;16.00;;;0.80;99.90;;;;;;5120498;28;20459;-57
2024/01/15 07:02:04;;;;;;;24.13;15.80;;;0.80;99.90;;;;;;5119043;28;20546;-58
2024/01/15 07:04:31;;;;;;;28.30;18.63;;;0.80;99.90;;;;;;5118695;28;20929;-57
2024/01/15 07:06:58;;;;;;;19.97;14.83;;;0.80;99.90;;;;;;5117813;28;20462;-59
2024/01/15 07:09:25;;;;;;;27.70;15.00;;;0.80;99.90;;;;;;5118634;28;20836;-59
2024/01/15 07:11:53;;;;;;;19.00;14.53;;;0.80;99.90;;;;;;5119618;28;20578;-59
2024/01/15 07:14:20;;;;;;;22.77;13.80;;;0.80;99.90;;;;;;5120250;28;20772;-60
2024/01/15 07:16:49;;;;;;;16.27;11.70;;;0.80;99.90;;;;;;5120131;28;20550;-59
2024/01/15 07:19:16;;;;;;;17.50;12.73;;;0.80;99.90;;;;;;5120212;28;20747;-60
2024/01/15 07:21:43;;;;;;;17.63;11.93;;;0.80;99.90;;;;;;5120183;28;20808;-58
2024/01/15 07:24:11;;;;;;;16.27;11.27;;;0.80;99.90;;;;;;5119637;28;20440;-59
2024/01/15 07:26:38;;;;;;;13.67;10.40;;;0.70;99.90;;;;;;5120101;28;20463;-59
2024/01/15 07:29:05;;;;;;;13.80;11.00;;;0.80;99.90;;;;;;5120125;28;20491;-60
2024/01/15 07:31:33;;;;;;;19.53;11.70;;;0.80;99.90;;;;;;5119328;27;20527;-59
2024/01/15 07:34:02;;;;;;;14.17;10.50;;;0.70;99.90;;;;;;5118766;28;20542;-59
2024/01/15 07:36:29;;;;;;;14.30;11.50;;;0.70;99.90;;;;;;5118722;28;20459;-58
2024/01/15 07:38:56;;;;;;;12.80;10.10;;;0.70;99.90;;;;;;5118018;28;20455;-58
2024/01/15 07:41:24;;;;;;;14.43;10.30;;;0.80;99.90;;;;;;5112658;28;20537;-57
2024/01/15 07:43:51;;;;;;;13.30;9.70;;;0.90;99.90;;;;;;5125708;27;20462;-58
2024/01/15 07:46:18;;;;;;;14.90;9.83;;;0.80;99.90;;;;;;5128191;27;20434;-59
2024/01/15 07:48:45;;;;;;;13.93;10.13;;;0.80;99.90;;;;;;5128615;27;20485;-57
2024/01/15 07:51:14;;;;;;;14.23;10.03;;;0.80;99.90;;;;;;5138200;27;20461;-58
2024/01/15 07:53:42;;;;;;;10.57;8.30;;;0.70;99.90;;;;;;5139550;27;20467;-59
2024/01/15 07:56:09;;;;;;;15.30;10.83;;;0.70;99.90;;;;;;5139200;27;20546;-59
2024/01/15 07:58:36;;;;;;;13.53;10.67;;;0.70;99.90;;;;;;5139093;27;20958;-59
2024/01/15 08:01:04;;;;;;;13.90;10.57;;;0.70;99.90;;;;;;5139490;27;20436;-60
2024/01/15 08:03:31;;;;;;;17.03;12.23;;;0.70;99.90;;;;;;5139889;27;20480;-59
2024/01/15 08:05:59;;;;;;;16.60;12.20;;;0.70;99.90;;;;;;5098101;28;20555;-59
2024/01/15 08:08:28;;;;;;;16.10;12.90;;;0.70;99.90;;;;;;5098252;28;20535;-59
2024/01/15 08:10:55;;;;;;;20.33;14.40;;;0.80;99.90;;;;;;5098488;28;20531;-59
2024/01/15 08:13:23;;;;;;;20.20;15.00;;;0.80;99.90;;;;;;5099108;28;20871;-59
2024/01/15 08:15:50;;;;;;;19.70;14.40;;;0.80;99.90;;;;;;5098732;28;20460;-60
2024/01/15 08:18:17;;;;;;;19.70;14.47;;;0.80;99.90;;;;;;5101382;28;20553;-59
2024/01/15 08:20:44;;;;;;;19.90;14.37;;;0.80;99.90;;;;;;5117460;28;20453;-59
2024/01/15 08:23:12;;;;;;;21.60;15.50;;;0.70;99.90;;;;;;5117391;28;20463;-58
2024/01/15 08:25:41;;;;;;;19.77;14.70;;;0.70;99.90;;;;;;5116764;28;20465;-58
2024/01/15 08:28:08;;;;;;;22.10;16.10;;;0.80;99.90;;;;;;5115214;28;20471;-58
2024/01/15 08:30:35;;;;;;;19.63;13.80;;;0.80;99.90;;;;;;5116718;28;20477;-59
2024/01/15 08:33:03;;;;;;;24.20;15.07;;;0.80;99.90;;;;;;5117525;28;20561;-60
2024/01/15 08:35:30;;;;;;;21.37;14.97;;;0.80;99.90;;;;;;5117666;28;20897;-59
2024/01/15 08:37:58;;;;;;;18.37;14.00;;;0.80;99.90;;;;;;5117133;28;20893;-60
2024/01/15 08:40:25;;;;;;;15.63;12.20;;;0.80;99.90;;;;;;5116568;28;20459;-60
2024/01/15 08:42:54;;;;;;;19.73;12.60;;;0.80;99.90;;;;;;5098806;28;20469;-61
2024/01/15 08:45:21;;;;;;;14.50;11.40;;;0.70;99.90;;;;;;5097601;28;20474;-60
2024/01/15 08:47:48;;;;;;;14.37;12.60;;;0.70;99.90;;;;;;5098154;28;20878;-59
2024/01/15 08:50:16;;;;;;;17.00;12.50;;;0.70;99.90;;;;;;5106268;28;20897;-61
2024/01/15 08:52:43;;;;;;;16.83;13.50;;;0.70;99.90;;;;;;5102353;28;20493;-61
2024/01/15 08:55:10;;;;;;;14.33;11.97;;;0.70;99.90;;;;;;5118103;28;20434;-61
2024/01/15 08:57:38;;;;;;;15.90;12.90;;;0.70;99.90;;;;;;5107211;28;20529;-61
2024/01/15 09:00:09;;;;;;;15.80;12.57;;;0.70;99.90;;;;;;5097241;28;20547;-61
2024/01/15 09:02:37;;;;;;;16.93;12.63;;;0.70;99.90;;;;;;5097943;28;20958;-61
2024/01/15 09:05:05;;;;;;;14.80;12.10;;;0.70;99.90;;;;;;5097827;28;20467;-62
2024/01/15 09:07:33;;;;;;;16.60;12.70;;;0.70;99.90;;;;;;5097782;28;20507;-61
2024/01/15 09:10:01;;;;;;;13.87;12.30;;;0.60;99.90;;;;;;5097428;28;20870;-62
2024/01/15 09:12:29;;;;;;;17.63;12.67;;;0.60;99.90;;;;;;5097479;28;20488;-63
2024/01/15 09:14:56;;;;;;;17.43;12.33;;;0.70;99.90;;;;;;5097620;28;20483;-62
2024/01/15 09:17:28;;;;;;;12.27;10.23;;;0.70;99.90;;;;;;5097402;28;20835;-62
2024/01/15 09:19:55;;;;;;;14.80;10.90;;;0.70;99.90;;;;;;5095954;28;20840;-62
2024/01/15 09:22:22;;;;;;;15.20;12.93;;;0.70;99.90;;;;;;5095991;28;20457;-62
2024/01/15 09:24:49;;;;;;;12.30;10.23;;;0.70;99.90;;;;;;5097586;28;20461;-62
2024/01/15 09:27:17;;;;;;;11.63;9.43;;;0.70;99.90;;;;;;5097445;28;20464;-62
2024/01/15 09:29:45;;;;;;;11.10;8.70;;;0.80;99.90;;;;;;5096727;28;20459;-63
2024/01/15 09:32:13;;;;;;;9.97;8.50;;;0.70;99.90;;;;;;5097071;28;20499;-63
2024/01/15 09:34:42;;;;;;;9.50;7.53;;;0.60;99.90;;;;;;5096951;28;20815;-63
2024/01/15 09:37:09;;;;;;;9.43;7.67;;;0.70;99.90;;;;;;5097450;28;20517;-64
2024/01/15 09:39:37;;;;;;;8.70;7.23;;;0.60;99.90;;;;;;5097562;28;20456;-64
2024/01/15 09:42:06;;;;;;;7.80;6.50;;;0.70;99.90;;;;;;5097073;28;20457;-64
2024/01/15 09:44:34;;;;;;;7.87;6.77;;;0.70;99.90;;;;;;5097419;28;20452;-64
2024/01/15 09:47:02;;;;;;;7.10;5.73;;;0.70;99.90;;;;;;5096923;28;20481;-64
2024/01/15 09:49:29;;;;;;;7.90;6.13;;;0.60;99.90;;;;;;5097354;28;20465;-64
2024/01/15 09:51:59;;;;;;;8.00;6.33;;;0.70;99.90;;;;;;5096346;28;20545;-65
2024/01/15 09:54:27;;;;;;;7.13;6.00;;;0.60;99.90;;;;;;5097080;28;20514;-65
2024/01/15 09:56:56;;;;;;;7.07;6.37;;;0.60;99.90;;;;;;5096967;28;20471;-66
2024/01/15 09:59:25;;;;;;;7.77;6.30;;;0.70;99.90;;;;;;5096878;28;20457;-65
2024/01/15 10:01:54;;;;;;;8.80;7.17;;;0.70;99.90;;;;;;5097211;28;20444;-66
2024/01/15 10:04:22;;;;;;;9.40;7.10;;;0.90;99.90;;;;;;5096906;28;20770;-66
2024/01/15 10:06:52;;;;;;;10.23;7.80;;;0.80;99.90;;;;;;5096873;28;20562;-66
2024/01/15 10:09:21;;;;;;;7.77;6.50;;;0.80;99.90;;;;;;5096752;28;20992;-66
2024/01/15 10:11:49;;;;;;;8.03;6.57;;;0.90;99.90;;;;;;5097008;28;20496;-66
2024/01/15 10:14:16;;;;;;;10.33;7.80;;;0.80;99.90;;;;;;5096818;28;20793;-66
2024/01/15 10:16:44;;;;;;;8.50;6.80;;;0.80;99.90;;;;;;5096632;28;20470;-66
2024/01/15 10:19:12;;;;;;;9.43;7.40;;;0.80;99.90;;;;;;5096758;28;20807;-66
2024/01/15 10:21:39;;;;;;;10.30;8.60;;;0.80;99.90;;;;;;5096444;28;20485;-65
2024/01/15 10:24:07;;;;;;;13.20;8.73;;;0.80;99.90;;;;;;5096214;28;20470;-65
2024/01/15 10:26:36;;;;;;;10.93;8.23;;;0.70;99.90;;;;;;5096574;28;20451;-65
2024/01/15 10:29:04;;;;;;;10.13;8.60;;;0.70;99.90;;;;;;5096669;28;20456;-65
2024/01/15 10:31:32;;;;;;;12.57;9.27;;;0.70;99.90;;;;;;5096485;28;20492;-65
2024/01/15 10:34:15;;;;;;;10.60;8.73;;;0.70;99.90;;;;;;5096873;28;20456;-65
2024/01/15 10:36:42;;;;;;;11.20;8.57;;;0.70;99.90;;;;;;5096012;28;20471;-64
2024/01/15 10:39:12;;;;;;;8.93;7.60;;;0.70;99.90;;;;;;5096696;28;20700;-64
2024/01/15 10:41:40;;;;;;;10.93;8.73;;;0.70;99.90;;;;;;5099908;28;20463;-65
2024/01/15 10:44:08;;;;;;;9.13;7.23;;;0.80;99.90;;;;;;5099771;28;20467;-64
2024/01/15 10:46:36;;;;;;;10.53;7.63;;;0.90;99.90;;;;;;5100137;28;20467;-65
2024/01/15 10:49:04;;;;;;;9.57;7.03;;;0.90;99.90;;;;;;5099968;28;20463;-64
2024/01/15 10:51:32;;;;;;;7.80;6.20;;;0.80;99.90;;;;;;5099791;28;20460;-65
2024/01/15 10:54:02;;;;;;;7.60;6.70;;;0.80;99.90;;;;;;5099686;28;20463;-65
2024/01/15 10:56:31;;;;;;;7.53;6.73;;;0.90;99.90;;;;;;5098987;28;20463;-65
2024/01/15 10:59:00;;;;;;;10.50;6.47;;;0.80;99.90;;;;;;5100068;28;20456;-65
2024/01/15 11:01:29;;;;;;;7.93;6.37;;;0.80;99.90;;;;;;5099980;28;20913;-65
2024/01/15 11:03:57;;;;;;;8.80;6.57;;;0.70;99.90;;;;;;5099560;28;20435;-66
2024/01/15 11:06:26;;;;;;;8.60;7.30;;;0.70;99.90;;;;;;5098966;28;20460;-66
2024/01/15 11:08:54;;;;;;;12.13;7.83;;;0.60;99.90;;;;;;5099594;28;20508;-65
2024/01/15 11:11:23;;;;;;;7.50;6.30;;;0.70;99.90;;;;;;5099498;28;20564;-66
2024/01/15 11:13:52;;;;;;;8.60;6.90;;;0.70;99.90;;;;;;5098661;28;20537;-66
2024/01/15 11:16:21;;;;;;;8.77;7.43;;;0.70;99.90;;;;;;5097920;28;20561;-65
2024/01/15 11:19:06;;;;;;;7.50;6.63;;;0.70;99.90;;;;;;5098122;28;20526;-66
2024/01/15 11:21:33;;;;;;;7.90;6.57;;;0.70;99.90;;;;;;5098509;28;20819;-65
2024/01/15 11:24:02;;;;;;;7.90;6.60;;;0.60;99.90;;;;;;5098158;28;20862;-65
2024/01/15 11:26:31;;;;;;;11.20;6.23;;;0.60;99.90;;;;;;5097079;28;20466;-65
2024/01/15 11:29:00;;;;;;;8.23;6.50;;;0.70;99.90;;;;;;5097412;28;20873;-66
2024/01/15 11:31:59;;;;;;;8.40;6.40;;;0.70;99.90;;;;;;5097697;28;20456;-65
2024/01/15 11:34:51;;;;;;;6.17;5.30;;;0.70;99.90;;;;;;5097563;28;20526;-66
2024/01/15 11:37:19;;;;;;;6.30;5.30;;;0.70;99.90;;;;;;5109975;28;20506;-66
2024/01/15 11:39:47;;;;;;;9.73;6.27;;;0.70;99.90;;;;;;5117593;28;20462;-66
2024/01/15 11:42:15;;;;;;;6.87;6.17;;;0.70;99.90;;;;;;5117533;28;20463;-67
2024/01/15 11:44:44;;;;;;;8.43;5.87;;;0.80;99.90;;;;;;5118457;28;20461;-67
2024/01/15 11:47:14;;;;;;;7.40;5.13;;;0.80;99.90;;;;;;5118738;28;20455;-67
2024/01/15 11:50:00;;;;;;;7.00;5.70;;;0.80;99.90;;;;;;5118640;28;20433;-67
2024/01/15 11:52:32;;;;;;;8.20;5.30;;;0.80;99.90;;;;;;5117499;28;20515;-67
2024/01/15 11:55:05;;;;;;;7.90;5.77;;;0.70;99.90;;;;;;5117977;28;20982;-68
2024/01/15 11:57:41;;;;;;;8.70;6.00;;;0.70;99.90;;;;;;5118286;28;20458;-67
2024/01/15 12:00:12;;;;;;;9.07;5.83;;;0.70;99.90;;;;;;5118042;28;20487;-67
2024/01/15 12:02:42;;;;;;;9.10;5.10;;;0.80;99.90;;;;;;5118538;28;20455;-67
2024/01/15 12:05:12;;;;;;;7.07;5.30;;;0.80;99.90;;;;;;5117866;28;20458;-67
2024/01/15 12:07:39;;;;;;;5.87;4.47;;;0.80;99.90;;;;;;5117127;28;21048;-68
2024/01/15 12:10:11;;;;;;;9.00;5.17;;;0.80;99.90;;;;;;5116653;28;20459;-68
2024/01/15 12:12:58;;;;;;;8.23;5.20;;;0.80;99.90;;;;;;5117047;28;20540;-68
2024/01/15 12:15:28;;;;;;;5.17;4.07;;;0.80;99.90;;;;;;5117510;28;20961;-69
2024/01/15 12:17:59;;;;;;;6.23;4.80;;;0.70;99.90;;;;;;5116832;28;20463;-69
2024/01/15 12:20:27;;;;;;;5.37;3.93;;;0.70;99.90;;;;;;5116854;28;20433;-70
2024/01/15 12:22:55;;;;;;;7.37;4.23;;;0.70;99.90;;;;;;5116557;28;20450;-72
2024/01/15 12:25:23;;;;;;;8.63;4.80;;;0.80;99.90;;;;;;5118625;28;20463;-71
2024/01/15 12:27:51;;;;;;;7.83;4.30;;;0.80;99.90;;;;;;5118049;28;20936;-70
2024/01/15 12:30:19;;;;;;;9.30;4.40;;;0.70;99.90;;;;;;5117718;28;20964;-72
2024/01/15 12:32:47;;;;;;;7.43;4.40;;;0.60;99.90;;;;;;5117928;28;20501;-72
2024/01/15 12:35:16;;;;;;;6.17;4.67;;;0.70;99.90;;;;;;5118237;28;20549;-73
2024/01/15 12:37:46;;;;;;;8.30;4.50;;;0.70;99.90;;;;;;5118482;28;20516;-71
2024/01/15 12:40:14;;;;;;;6.73;4.53;;;0.70;99.90;;;;;;5117860;28;20463;-71
2024/01/15 12:42:42;;;;;;;9.03;4.30;;;0.70;99.90;;;;;;5118446;28;20532;-72
2024/01/15 12:45:12;;;;;;;12.13;4.60;;;0.70;99.90;;;;;;5118428;28;20514;-72